Terminal Aerodrome Forecast
Issued by NWS Albany, NY

Home | Current Version | Previous Version | Text Only | Print | Product List | Glossary On
Versions: 1 2 3 4 5 6 7 8 9 10 11 12 13
000
FTUS41 KALY 211741
TAFALB
TAF
KALB 211741Z 2118/2218 29006KT P6SM FEW045 SCT250
     FM220000 VRB03KT P6SM SCT200
     FM220400 00000KT P6SM BKN200
     FM220800 VRB03KT P6SM OVC100
     FM221300 16006KT P6SM VCSH OVC060
     FM221500 15008KT 4SM -SHRA SCT020 OVC040=

USA.gov is the U.S. government's official web portal to all federal, state and local government web resources and services.